Weather reports worldwide

Advertisment
Valencia, Spain (8285): temperature & dewpoint: 16.06.2018 15:00:00 - 22.06.2018 15:00:00 (CEST)Valencia, Spain (8285): wind speed & gusts: 16.06.2018 15:00:00 - 22.06.2018 15:00:00 (CEST)Valencia, Spain (8285): wind direction: 16.06.2018 15:00:00 - 22.06.2018 15:00:00 (CEST)Valencia, Spain (8285): precipitation: 16.06.2018 15:00:00 - 22.06.2018 15:00:00 (CEST)
Date & Time tt [°C] td [°C] ff [km/h] ff [kn] fx [km/h] fx [kn] dd rr [mm]
22.06.2018 15:00:00 - - - - - - - -
22.06.2018 14:00:00 30,9 11,3 10 5 22 12 SE -
22.06.2018 13:00:00 30,8 10,8 9 5 18 10 SSE 0,0
22.06.2018 12:00:00 30,3 11,3 5 3 13 7 SSE 0,0
22.06.2018 11:00:00 29,4 11,4 4 2 10 6 S 0,0
22.06.2018 10:00:00 25,4 11,9 4 2 9 5 SW 0,0
22.06.2018 09:00:00 22,9 11,9 0 0 6 3 SSW 0,0
22.06.2018 08:00:00 21,4 12,5 1 1 7 4 WSW -
22.06.2018 07:00:00 21,2 12,3 4 2 10 5 WSW 0,0
22.06.2018 06:00:00 21,0 12,6 1 1 10 6 WSW 0,0
22.06.2018 05:00:00 21,3 14,2 3 2 11 6 WSW 0,0
22.06.2018 04:00:00 21,3 16,7 3 2 8 4 W 0,0
22.06.2018 03:00:00 21,7 17,1 2 1 5 3 N 0,0
22.06.2018 02:00:00 21,8 15,6 1 0 5 3 N -
22.06.2018 01:00:00 22,4 17,3 0 0 3 2 N 0,0
22.06.2018 00:00:00 23,9 18,5 0 0 8 4 NW 0,0
21.06.2018 23:00:00 24,3 16,6 1 1 11 6 NNE 0,0
21.06.2018 22:00:00 24,8 15,7 1 0 12 7 SSE 0,0
21.06.2018 21:00:00 26,1 14,5 8 5 18 10 ESE 0,0
21.06.2018 20:00:00 27,0 13,4 7 4 29 16 ESE -
21.06.2018 19:00:00 28,2 12,1 8 4 21 11 SE 0,0
21.06.2018 18:00:00 28,7 10,9 8 5 22 12 SE 0,0
21.06.2018 17:00:00 28,7 11,3 11 6 21 11 ESE 0,0
21.06.2018 16:00:00 29,3 10,9 13 7 24 13 ESE 0,0
21.06.2018 15:00:00 29,5 9,6 10 6 21 11 ESE 0,0
21.06.2018 14:00:00 29,8 10,4 10 5 19 10 ESE -
21.06.2018 13:00:00 29,4 11,0 5 3 15 8 SSE 0,0
21.06.2018 12:00:00 29,1 12,1 5 3 13 7 ESE 0,0
21.06.2018 11:00:00 27,2 12,8 4 2 10 6 N 0,0
21.06.2018 10:00:00 23,9 12,8 3 2 11 6 W 0,0
21.06.2018 09:00:00 21,8 12,6 6 3 11 6 W 0,0
21.06.2018 08:00:00 20,3 12,7 5 3 10 5 WSW -
21.06.2018 07:00:00 19,5 13,3 4 2 9 5 WSW 0,0
21.06.2018 06:00:00 19,8 13,9 1 1 6 3 WSW 0,0
21.06.2018 05:00:00 20,4 15,4 3 1 5 3 WSW 0,0
21.06.2018 04:00:00 21,2 16,1 1 1 7 4 WSW 0,0
21.06.2018 03:00:00 21,4 17,0 2 1 7 4 W 0,0
21.06.2018 02:00:00 21,5 17,7 0 0 4 2 N -
21.06.2018 01:00:00 22,2 17,5 1 0 4 2 NNE 0,0
21.06.2018 00:00:00 22,9 17,1 0 0 8 4 N 0,0
20.06.2018 23:00:00 23,5 16,6 2 1 7 4 N 0,0
20.06.2018 22:00:00 24,2 15,4 0 0 9 5 S 0,0
20.06.2018 21:00:00 25,3 14,1 5 3 13 7 SE 0,0
20.06.2018 20:00:00 25,7 13,9 7 4 25 13 SSE -
20.06.2018 19:00:00 26,1 13,6 10 5 27 14 ESE 0,0
20.06.2018 18:00:00 26,5 13,3 13 7 25 14 SE 0,0
20.06.2018 17:00:00 27,6 12,4 13 7 31 17 SE 0,0
20.06.2018 16:00:00 28,2 11,7 11 6 26 14 SE 0,0
20.06.2018 15:00:00 27,2 13,2 14 8 26 14 E 0,0
20.06.2018 14:00:00 26,9 15,3 9 5 20 11 ESE -
20.06.2018 13:00:00 26,9 15,0 6 4 18 10 ESE 0,0
20.06.2018 12:00:00 26,4 16,0 6 4 16 8 ESE 0,0
20.06.2018 11:00:00 26,1 16,6 2 1 12 6 E 0,0
20.06.2018 10:00:00 23,2 15,5 1 0 6 4 WSW 0,0
20.06.2018 09:00:00 21,3 13,9 3 1 6 3 N 0,0
20.06.2018 08:00:00 20,4 14,3 1 0 6 3 NW -
20.06.2018 07:00:00 20,2 14,1 2 1 6 4 W 0,0
20.06.2018 06:00:00 20,0 13,9 3 1 6 3 W 0,0
20.06.2018 05:00:00 20,2 14,1 2 1 8 4 WSW 0,0
20.06.2018 04:00:00 20,8 15,2 3 1 6 3 WSW 0,0
20.06.2018 03:00:00 21,2 15,3 3 2 8 5 N 0,0
20.06.2018 02:00:00 21,8 16,7 4 2 10 5 N -
20.06.2018 01:00:00 22,3 17,2 5 3 11 6 N 0,0
20.06.2018 00:00:00 22,9 17,1 6 4 11 6 N 0,0
19.06.2018 23:00:00 23,2 16,7 5 3 11 6 N 0,0
19.06.2018 22:00:00 24,0 15,5 3 2 16 9 E 0,0
19.06.2018 21:00:00 24,3 14,4 7 4 20 11 SSE 0,0
19.06.2018 20:00:00 25,0 14,4 11 6 23 12 ESE -
19.06.2018 19:00:00 25,3 14,1 10 6 29 16 SE 0,0
19.06.2018 18:00:00 25,6 12,7 16 8 29 16 SE 0,0
19.06.2018 17:00:00 26,8 12,1 14 7 30 16 ESE 0,0
19.06.2018 16:00:00 27,2 12,0 14 8 28 15 ESE 0,0
19.06.2018 15:00:00 26,6 13,7 10 6 25 14 ESE 0,0
19.06.2018 14:00:00 27,3 14,3 9 5 21 11 ESE -
19.06.2018 13:00:00 26,9 13,0 9 5 19 10 ESE 0,0
19.06.2018 12:00:00 26,5 13,3 5 3 14 8 ESE 0,0
19.06.2018 11:00:00 25,6 14,7 2 1 12 6 E 0,0
19.06.2018 10:00:00 22,4 16,0 2 1 10 5 N 0,0
19.06.2018 09:00:00 21,4 16,6 3 2 9 5 N 0,0
19.06.2018 08:00:00 20,4 16,0 5 3 9 5 N -
19.06.2018 07:00:00 19,8 15,0 4 2 10 5 N 0,0
19.06.2018 06:00:00 19,4 14,4 4 2 8 4 N 0,0
19.06.2018 05:00:00 19,3 16,1 5 3 7 4 N 0,0
19.06.2018 04:00:00 20,4 18,0 0 0 6 4 N 0,0
19.06.2018 03:00:00 20,9 18,7 0 0 3 2 ENE 0,0
19.06.2018 02:00:00 21,4 18,8 1 1 5 3 N -
19.06.2018 01:00:00 21,7 18,7 1 1 5 3 N 0,0
19.06.2018 00:00:00 22,2 18,6 1 1 4 2 NNE 0,0
18.06.2018 23:00:00 22,7 19,1 1 0 7 4 NNE 0,0
18.06.2018 22:00:00 23,3 18,4 2 1 10 5 NNE 0,0
18.06.2018 21:00:00 23,9 18,5 4 2 14 7 N 0,0
18.06.2018 20:00:00 24,8 16,5 5 3 15 8 ESE -
18.06.2018 19:00:00 25,8 13,3 3 2 20 11 SE 0,0
18.06.2018 18:00:00 26,0 12,1 6 4 22 12 ESE 0,0
18.06.2018 17:00:00 25,7 11,4 10 5 25 14 ESE 0,0
18.06.2018 16:00:00 26,6 9,9 7 4 22 12 ESE 0,0
18.06.2018 15:00:00 26,1 9,8 8 4 22 12 ESE 0,0
18.06.2018 14:00:00 26,9 10,2 5 3 18 10 ESE -
18.06.2018 13:00:00 26,3 9,2 8 5 19 11 ESE 0,0
18.06.2018 12:00:00 25,5 12,6 7 4 21 11 ESE 0,0
18.06.2018 11:00:00 24,6 10,0 10 5 21 11 ESE 0,0
18.06.2018 10:00:00 23,5 15,0 5 3 20 11 NE 0,0
18.06.2018 09:00:00 22,0 13,1 5 3 10 6 NNE 0,0
18.06.2018 08:00:00 20,1 12,6 1 1 5 3 N -
18.06.2018 07:00:00 19,0 12,7 1 1 6 4 NE 0,0
18.06.2018 06:00:00 19,4 12,4 4 2 7 4 W 0,0
18.06.2018 05:00:00 19,7 13,0 4 2 10 5 W 0,0
18.06.2018 04:00:00 19,9 13,4 0 0 7 4 SW 0,0
18.06.2018 03:00:00 20,7 13,7 5 3 8 5 N 0,0
18.06.2018 02:00:00 21,3 13,9 4 2 11 6 WSW -
18.06.2018 01:00:00 21,7 15,3 5 3 11 6 N 0,0
18.06.2018 00:00:00 22,3 16,1 2 1 9 5 N 0,0
17.06.2018 23:00:00 22,5 15,8 5 3 11 6 N 0,0
17.06.2018 22:00:00 23,2 16,0 3 2 9 5 NNE 0,0
17.06.2018 21:00:00 23,9 15,2 2 1 14 8 ENE 0,0
17.06.2018 20:00:00 24,5 15,4 5 3 20 11 ESE -
17.06.2018 19:00:00 24,6 15,8 6 3 22 12 ESE 0,0
17.06.2018 18:00:00 24,8 16,7 7 4 26 14 ESE 0,0
17.06.2018 17:00:00 24,9 16,3 10 6 24 13 ESE 0,0
17.06.2018 16:00:00 26,2 16,1 7 4 23 13 ESE 0,0
17.06.2018 15:00:00 26,5 15,3 4 2 23 13 E 0,0
17.06.2018 14:00:00 25,8 14,2 9 5 23 12 ESE -
17.06.2018 13:00:00 25,8 15,5 4 2 18 10 ESE 0,0
17.06.2018 12:00:00 25,3 13,9 6 3 18 10 E 0,0
17.06.2018 11:00:00 25,6 13,5 6 4 11 6 NNE 0,0
17.06.2018 10:00:00 23,0 14,5 3 1 9 5 SSE 0,0
17.06.2018 09:00:00 20,6 13,8 3 2 6 3 NNE 0,0
17.06.2018 08:00:00 19,4 13,4 1 0 6 3 SSW -
17.06.2018 07:00:00 18,8 13,3 3 2 5 3 W 0,0
17.06.2018 06:00:00 19,2 13,4 3 1 6 3 WSW 0,0
17.06.2018 05:00:00 19,6 14,2 1 1 7 4 W 0,0
17.06.2018 04:00:00 - - 0 0 5 3 N 0,0
17.06.2018 03:00:00 20,5 15,5 1 1 3 1 N 0,0
17.06.2018 02:00:00 21,1 15,4 1 0 6 3 NNE -
17.06.2018 01:00:00 21,8 14,9 2 1 6 3 NNE 0,0
17.06.2018 00:00:00 22,3 14,9 3 1 8 4 N 0,0
16.06.2018 23:00:00 22,4 14,8 4 2 10 5 N 0,0
16.06.2018 22:00:00 22,8 14,6 3 1 11 6 NNE 0,0
16.06.2018 21:00:00 23,3 14,6 4 2 13 7 ESE 0,0
16.06.2018 20:00:00 23,5 14,2 6 3 18 10 ESE -
16.06.2018 19:00:00 23,9 15,2 5 3 23 13 E 0,0
16.06.2018 18:00:00 24,0 15,3 3 2 26 14 NE 0,0
16.06.2018 17:00:00 24,7 17,9 6 4 29 16 E 0,0
16.06.2018 16:00:00 24,3 18,0 10 5 27 15 ESE 0,0
16.06.2018 15:00:00 24,2 17,0 6 4 22 12 E 0,0

tt = temperature
td = dewpoint
ff = wind speed
fx = gusts
dd = wind direction
rr = precipitation

Next stations